sensor_id;sensor_type;location;lat;lon;timestamp;temperature;humidity
12911;DHT22;6523;49.758;6.120;2023-02-28T00:00:25;-3.40;99.90
12911;DHT22;6523;49.758;6.120;2023-02-28T00:02:50;-3.30;99.90
12911;DHT22;6523;49.758;6.120;2023-02-28T00:05:19;-3.30;99.90
12911;DHT22;6523;49.758;6.120;2023-02-28T00:07:45;-3.50;99.90
12911;DHT22;6523;49.758;6.120;2023-02-28T00:10:14;-3.70;99.90
12911;DHT22;6523;49.758;6.120;2023-02-28T00:12:44;-3.70;99.90
12911;DHT22;6523;49.758;6.120;2023-02-28T00:15:10;-3.80;99.90
12911;DHT22;6523;49.758;6.120;2023-02-28T00:17:37;-3.70;99.90
12911;DHT22;6523;49.758;6.120;2023-02-28T00:20:04;-3.60;99.90
12911;DHT22;6523;49.758;6.120;2023-02-28T00:22:32;-3.50;99.90
12911;DHT22;6523;49.758;6.120;2023-02-28T00:24:57;-3.50;99.90
12911;DHT22;6523;49.758;6.120;2023-02-28T00:27:23;-3.70;99.90
12911;DHT22;6523;49.758;6.120;2023-02-28T00:29:48;-3.70;99.90
12911;DHT22;6523;49.758;6.120;2023-02-28T00:32:14;-4.00;99.90
12911;DHT22;6523;49.758;6.120;2023-02-28T00:34:39;-4.10;99.90
12911;DHT22;6523;49.758;6.120;2023-02-28T00:37:06;-4.00;99.90
12911;DHT22;6523;49.758;6.120;2023-02-28T00:39:36;-4.10;99.90
12911;DHT22;6523;49.758;6.120;2023-02-28T00:42:03;-4.00;99.90
12911;DHT22;6523;49.758;6.120;2023-02-28T00:44:29;-3.90;99.90
12911;DHT22;6523;49.758;6.120;2023-02-28T00:46:55;-3.90;99.90
12911;DHT22;6523;49.758;6.120;2023-02-28T00:49:22;-3.90;99.90
12911;DHT22;6523;49.758;6.120;2023-02-28T00:51:47;-3.90;99.90
12911;DHT22;6523;49.758;6.120;2023-02-28T00:54:13;-4.20;99.90
12911;DHT22;6523;49.758;6.120;2023-02-28T00:56:39;-4.20;99.90
12911;DHT22;6523;49.758;6.120;2023-02-28T00:59:04;-3.90;99.90
12911;DHT22;6523;49.758;6.120;2023-02-28T01:01:30;-3.80;99.90
12911;DHT22;6523;49.758;6.120;2023-02-28T01:03:56;-3.80;99.90
12911;DHT22;6523;49.758;6.120;2023-02-28T01:06:21;-3.90;99.90
12911;DHT22;6523;49.758;6.120;2023-02-28T01:08:47;-3.90;99.90
12911;DHT22;6523;49.758;6.120;2023-02-28T01:11:15;-4.10;99.90
12911;DHT22;6523;49.758;6.120;2023-02-28T01:13:42;-4.20;99.90
12911;DHT22;6523;49.758;6.120;2023-02-28T01:16:08;-4.20;99.90
12911;DHT22;6523;49.758;6.120;2023-02-28T01:18:33;-4.10;99.90
12911;DHT22;6523;49.758;6.120;2023-02-28T01:21:04;-4.20;99.90
12911;DHT22;6523;49.758;6.120;2023-02-28T01:23:30;-4.30;99.90
12911;DHT22;6523;49.758;6.120;2023-02-28T01:25:55;-4.00;99.90
12911;DHT22;6523;49.758;6.120;2023-02-28T01:28:21;-4.10;99.90
12911;DHT22;6523;49.758;6.120;2023-02-28T01:30:52;-4.20;99.90
12911;DHT22;6523;49.758;6.120;2023-02-28T01:33:18;-4.20;99.90
12911;DHT22;6523;49.758;6.120;2023-02-28T01:35:43;-4.00;99.90
12911;DHT22;6523;49.758;6.120;2023-02-28T01:38:09;-4.00;99.90
12911;DHT22;6523;49.758;6.120;2023-02-28T01:40:34;-4.20;99.90
12911;DHT22;6523;49.758;6.120;2023-02-28T01:43:00;-4.40;99.90
12911;DHT22;6523;49.758;6.120;2023-02-28T01:45:28;-4.10;99.90
12911;DHT22;6523;49.758;6.120;2023-02-28T01:47:58;-3.90;99.90
12911;DHT22;6523;49.758;6.120;2023-02-28T01:50:28;-4.00;99.90
12911;DHT22;6523;49.758;6.120;2023-02-28T01:52:57;-3.90;99.90
12911;DHT22;6523;49.758;6.120;2023-02-28T01:55:25;-3.90;99.90
12911;DHT22;6523;49.758;6.120;2023-02-28T01:57:56;-3.80;99.90
12911;DHT22;6523;49.758;6.120;2023-02-28T02:00:25;-3.80;99.90
12911;DHT22;6523;49.758;6.120;2023-02-28T02:02:54;-3.90;99.90
12911;DHT22;6523;49.758;6.120;2023-02-28T02:05:24;-3.80;99.90
12911;DHT22;6523;49.758;6.120;2023-02-28T02:07:54;-3.90;99.90
12911;DHT22;6523;49.758;6.120;2023-02-28T02:10:24;-3.90;99.90
12911;DHT22;6523;49.758;6.120;2023-02-28T02:29:34;-4.20;99.90
12911;DHT22;6523;49.758;6.120;2023-02-28T02:32:16;-4.20;99.90
12911;DHT22;6523;49.758;6.120;2023-02-28T02:35:16;-4.00;99.90
12911;DHT22;6523;49.758;6.120;2023-02-28T02:37:59;-4.10;99.90
12911;DHT22;6523;49.758;6.120;2023-02-28T02:40:32;-4.00;99.90
12911;DHT22;6523;49.758;6.120;2023-02-28T02:43:04;-4.00;99.90
12911;DHT22;6523;49.758;6.120;2023-02-28T02:45:42;-4.00;99.90
12911;DHT22;6523;49.758;6.120;2023-02-28T02:48:12;-4.10;99.90
12911;DHT22;6523;49.758;6.120;2023-02-28T02:50:45;-4.30;99.90
12911;DHT22;6523;49.758;6.120;2023-02-28T02:53:13;-4.30;99.90
12911;DHT22;6523;49.758;6.120;2023-02-28T02:55:43;-4.10;99.90
12911;DHT22;6523;49.758;6.120;2023-02-28T02:58:14;-4.10;99.90
12911;DHT22;6523;49.758;6.120;2023-02-28T03:00:52;-4.20;99.90
12911;DHT22;6523;49.758;6.120;2023-02-28T03:03:19;-4.30;99.90
12911;DHT22;6523;49.758;6.120;2023-02-28T03:05:59;-4.50;99.90
12911;DHT22;6523;49.758;6.120;2023-02-28T03:08:27;-4.30;99.90
12911;DHT22;6523;49.758;6.120;2023-02-28T03:11:01;-4.30;99.90
12911;DHT22;6523;49.758;6.120;2023-02-28T03:18:43;-4.10;99.90
12911;DHT22;6523;49.758;6.120;2023-02-28T03:24:23;-4.10;99.90
12911;DHT22;6523;49.758;6.120;2023-02-28T03:26:57;-4.20;99.90
12911;DHT22;6523;49.758;6.120;2023-02-28T03:29:33;-4.20;99.90
12911;DHT22;6523;49.758;6.120;2023-02-28T03:32:15;-4.20;99.90
12911;DHT22;6523;49.758;6.120;2023-02-28T03:35:07;-4.10;99.90
12911;DHT22;6523;49.758;6.120;2023-02-28T03:37:37;-4.20;99.90
12911;DHT22;6523;49.758;6.120;2023-02-28T03:40:13;-4.20;99.90
12911;DHT22;6523;49.758;6.120;2023-02-28T03:42:42;-4.20;99.90
12911;DHT22;6523;49.758;6.120;2023-02-28T03:45:33;-4.20;99.90
12911;DHT22;6523;49.758;6.120;2023-02-28T03:48:21;-4.20;99.90
12911;DHT22;6523;49.758;6.120;2023-02-28T03:50:54;-4.20;99.90
12911;DHT22;6523;49.758;6.120;2023-02-28T03:53:37;-4.20;99.90
12911;DHT22;6523;49.758;6.120;2023-02-28T03:59:44;-4.10;99.90
12911;DHT22;6523;49.758;6.120;2023-02-28T04:02:10;-4.10;99.90
12911;DHT22;6523;49.758;6.120;2023-02-28T04:04:36;-4.10;99.90
12911;DHT22;6523;49.758;6.120;2023-02-28T04:07:07;-4.00;99.90
12911;DHT22;6523;49.758;6.120;2023-02-28T04:09:34;-3.90;99.90
12911;DHT22;6523;49.758;6.120;2023-02-28T04:12:00;-3.90;99.90
12911;DHT22;6523;49.758;6.120;2023-02-28T04:14:26;-3.90;99.90
12911;DHT22;6523;49.758;6.120;2023-02-28T04:16:51;-4.00;99.90
12911;DHT22;6523;49.758;6.120;2023-02-28T04:19:18;-4.00;99.90
12911;DHT22;6523;49.758;6.120;2023-02-28T04:21:47;-4.00;99.90
12911;DHT22;6523;49.758;6.120;2023-02-28T04:24:21;-3.80;99.90
12911;DHT22;6523;49.758;6.120;2023-02-28T04:26:49;-3.80;99.90
12911;DHT22;6523;49.758;6.120;2023-02-28T04:29:26;-3.90;99.90
12911;DHT22;6523;49.758;6.120;2023-02-28T04:31:53;-3.80;99.90
12911;DHT22;6523;49.758;6.120;2023-02-28T04:34:20;-3.60;99.90
12911;DHT22;6523;49.758;6.120;2023-02-28T04:36:47;-3.70;99.90
12911;DHT22;6523;49.758;6.120;2023-02-28T04:39:15;-3.70;99.90
12911;DHT22;6523;49.758;6.120;2023-02-28T04:45:04;-3.90;99.90
12911;DHT22;6523;49.758;6.120;2023-02-28T04:47:30;-3.80;99.90
12911;DHT22;6523;49.758;6.120;2023-02-28T04:49:55;-3.80;99.90
12911;DHT22;6523;49.758;6.120;2023-02-28T04:52:21;-3.70;99.90
12911;DHT22;6523;49.758;6.120;2023-02-28T04:54:47;-3.70;99.90
12911;DHT22;6523;49.758;6.120;2023-02-28T04:57:12;-3.70;99.90
12911;DHT22;6523;49.758;6.120;2023-02-28T04:59:38;-4.00;99.90
12911;DHT22;6523;49.758;6.120;2023-02-28T05:02:03;-3.90;99.90
12911;DHT22;6523;49.758;6.120;2023-02-28T05:04:33;-3.90;99.90
12911;DHT22;6523;49.758;6.120;2023-02-28T05:07:00;-3.90;99.90
12911;DHT22;6523;49.758;6.120;2023-02-28T05:09:26;-4.00;99.90
12911;DHT22;6523;49.758;6.120;2023-02-28T05:11:51;-4.00;99.90
12911;DHT22;6523;49.758;6.120;2023-02-28T05:14:17;-4.10;99.90
12911;DHT22;6523;49.758;6.120;2023-02-28T05:16:42;-4.00;99.90
12911;DHT22;6523;49.758;6.120;2023-02-28T05:19:08;-4.10;99.90
12911;DHT22;6523;49.758;6.120;2023-02-28T05:21:36;-4.00;99.90
12911;DHT22;6523;49.758;6.120;2023-02-28T05:24:06;-3.90;99.90
12911;DHT22;6523;49.758;6.120;2023-02-28T05:26:42;-3.80;99.90
12911;DHT22;6523;49.758;6.120;2023-02-28T05:29:08;-3.80;99.90
12911;DHT22;6523;49.758;6.120;2023-02-28T05:31:34;-3.80;99.90
12911;DHT22;6523;49.758;6.120;2023-02-28T05:34:00;-4.00;99.90
12911;DHT22;6523;49.758;6.120;2023-02-28T05:36:26;-4.00;99.90
12911;DHT22;6523;49.758;6.120;2023-02-28T05:38:52;-4.10;99.90
12911;DHT22;6523;49.758;6.120;2023-02-28T05:41:18;-4.30;99.90
12911;DHT22;6523;49.758;6.120;2023-02-28T05:43:45;-4.30;99.90
12911;DHT22;6523;49.758;6.120;2023-02-28T05:46:11;-4.30;99.90
12911;DHT22;6523;49.758;6.120;2023-02-28T05:48:38;-4.40;99.90
12911;DHT22;6523;49.758;6.120;2023-02-28T05:51:05;-4.30;99.90
12911;DHT22;6523;49.758;6.120;2023-02-28T05:53:31;-4.30;99.90
12911;DHT22;6523;49.758;6.120;2023-02-28T05:55:56;-4.30;99.90
12911;DHT22;6523;49.758;6.120;2023-02-28T05:58:22;-4.40;99.90
12911;DHT22;6523;49.758;6.120;2023-02-28T06:00:48;-4.40;99.90
12911;DHT22;6523;49.758;6.120;2023-02-28T06:03:14;-4.30;99.90
12911;DHT22;6523;49.758;6.120;2023-02-28T06:05:40;-4.30;99.90
12911;DHT22;6523;49.758;6.120;2023-02-28T06:08:05;-4.30;99.90
12911;DHT22;6523;49.758;6.120;2023-02-28T06:10:34;-4.40;99.90
12911;DHT22;6523;49.758;6.120;2023-02-28T06:13:01;-4.30;99.90
12911;DHT22;6523;49.758;6.120;2023-02-28T06:15:30;-4.20;99.90
12911;DHT22;6523;49.758;6.120;2023-02-28T06:17:56;-4.20;99.90
12911;DHT22;6523;49.758;6.120;2023-02-28T06:20:23;-4.10;99.90
12911;DHT22;6523;49.758;6.120;2023-02-28T06:22:49;-4.20;99.90
12911;DHT22;6523;49.758;6.120;2023-02-28T06:25:16;-4.20;99.90
12911;DHT22;6523;49.758;6.120;2023-02-28T06:27:42;-4.20;99.90
12911;DHT22;6523;49.758;6.120;2023-02-28T06:30:09;-4.30;99.90
12911;DHT22;6523;49.758;6.120;2023-02-28T06:32:35;-4.40;99.90
12911;DHT22;6523;49.758;6.120;2023-02-28T06:35:02;-4.50;99.90
12911;DHT22;6523;49.758;6.120;2023-02-28T06:37:27;-4.50;99.90
12911;DHT22;6523;49.758;6.120;2023-02-28T06:39:54;-4.40;99.90
12911;DHT22;6523;49.758;6.120;2023-02-28T06:42:22;-4.30;99.90
12911;DHT22;6523;49.758;6.120;2023-02-28T06:44:48;-4.40;99.90
12911;DHT22;6523;49.758;6.120;2023-02-28T06:47:13;-4.30;99.90
12911;DHT22;6523;49.758;6.120;2023-02-28T06:49:39;-4.30;99.90
12911;DHT22;6523;49.758;6.120;2023-02-28T06:52:05;-4.30;99.90
12911;DHT22;6523;49.758;6.120;2023-02-28T06:54:30;-4.20;99.90
12911;DHT22;6523;49.758;6.120;2023-02-28T06:56:57;-4.10;99.90
12911;DHT22;6523;49.758;6.120;2023-02-28T06:59:23;-4.10;99.90
12911;DHT22;6523;49.758;6.120;2023-02-28T07:01:49;-4.00;99.90
12911;DHT22;6523;49.758;6.120;2023-02-28T07:04:15;-3.90;99.90
12911;DHT22;6523;49.758;6.120;2023-02-28T07:06:40;-3.90;99.90
12911;DHT22;6523;49.758;6.120;2023-02-28T07:09:06;-3.70;99.90
12911;DHT22;6523;49.758;6.120;2023-02-28T07:11:31;-3.80;99.90
12911;DHT22;6523;49.758;6.120;2023-02-28T07:13:57;-3.80;99.90
12911;DHT22;6523;49.758;6.120;2023-02-28T07:16:24;-3.70;99.90
12911;DHT22;6523;49.758;6.120;2023-02-28T07:18:53;-3.60;99.90
12911;DHT22;6523;49.758;6.120;2023-02-28T07:21:18;-3.30;99.90
12911;DHT22;6523;49.758;6.120;2023-02-28T07:23:44;-3.30;99.90
12911;DHT22;6523;49.758;6.120;2023-02-28T07:26:15;-3.20;99.90
12911;DHT22;6523;49.758;6.120;2023-02-28T07:28:43;-3.10;99.90
12911;DHT22;6523;49.758;6.120;2023-02-28T07:31:10;-3.10;99.90
12911;DHT22;6523;49.758;6.120;2023-02-28T07:33:36;-3.20;99.90
12911;DHT22;6523;49.758;6.120;2023-02-28T07:36:06;-3.20;99.90
12911;DHT22;6523;49.758;6.120;2023-02-28T07:38:37;-3.00;99.90
12911;DHT22;6523;49.758;6.120;2023-02-28T07:41:03;-3.00;99.90
12911;DHT22;6523;49.758;6.120;2023-02-28T07:43:32;-2.90;99.90
12911;DHT22;6523;49.758;6.120;2023-02-28T07:46:06;-2.70;99.90
12911;DHT22;6523;49.758;6.120;2023-02-28T07:48:32;-2.60;99.90
12911;DHT22;6523;49.758;6.120;2023-02-28T07:50:58;-2.50;99.90
12911;DHT22;6523;49.758;6.120;2023-02-28T07:53:25;-2.40;99.90
12911;DHT22;6523;49.758;6.120;2023-02-28T07:55:54;-2.30;99.90
12911;DHT22;6523;49.758;6.120;2023-02-28T07:58:20;-2.30;99.90
12911;DHT22;6523;49.758;6.120;2023-02-28T08:00:45;-2.20;99.90
12911;DHT22;6523;49.758;6.120;2023-02-28T08:03:12;-2.10;99.90
12911;DHT22;6523;49.758;6.120;2023-02-28T08:05:39;-2.10;99.90
12911;DHT22;6523;49.758;6.120;2023-02-28T08:08:05;-2.00;99.90
12911;DHT22;6523;49.758;6.120;2023-02-28T08:10:31;-1.90;99.90
12911;DHT22;6523;49.758;6.120;2023-02-28T08:12:56;-1.80;99.90
12911;DHT22;6523;49.758;6.120;2023-02-28T08:15:22;-1.70;99.90
12911;DHT22;6523;49.758;6.120;2023-02-28T08:17:47;-1.60;99.90
12911;DHT22;6523;49.758;6.120;2023-02-28T08:20:13;-1.50;99.90
12911;DHT22;6523;49.758;6.120;2023-02-28T08:22:38;-1.50;99.90
12911;DHT22;6523;49.758;6.120;2023-02-28T08:25:05;-1.40;99.90
12911;DHT22;6523;49.758;6.120;2023-02-28T08:27:33;-1.40;99.90
12911;DHT22;6523;49.758;6.120;2023-02-28T08:29:59;-1.30;99.90
12911;DHT22;6523;49.758;6.120;2023-02-28T08:32:24;-1.30;99.90
12911;DHT22;6523;49.758;6.120;2023-02-28T08:34:50;-1.20;99.90
12911;DHT22;6523;49.758;6.120;2023-02-28T08:37:16;-1.20;99.90
12911;DHT22;6523;49.758;6.120;2023-02-28T08:39:42;-1.10;99.90
12911;DHT22;6523;49.758;6.120;2023-02-28T08:42:07;-1.00;99.90
12911;DHT22;6523;49.758;6.120;2023-02-28T08:44:33;-0.90;99.90
12911;DHT22;6523;49.758;6.120;2023-02-28T08:46:58;-0.90;99.90
12911;DHT22;6523;49.758;6.120;2023-02-28T08:49:24;-0.80;99.90
12911;DHT22;6523;49.758;6.120;2023-02-28T08:51:50;-0.80;99.90
12911;DHT22;6523;49.758;6.120;2023-02-28T08:54:15;-0.80;99.90
12911;DHT22;6523;49.758;6.120;2023-02-28T08:56:45;-0.70;99.90
12911;DHT22;6523;49.758;6.120;2023-02-28T08:59:12;-0.60;99.90
12911;DHT22;6523;49.758;6.120;2023-02-28T09:01:38;-0.50;99.90
12911;DHT22;6523;49.758;6.120;2023-02-28T09:04:03;-0.50;99.90
12911;DHT22;6523;49.758;6.120;2023-02-28T09:06:29;-0.50;99.90
12911;DHT22;6523;49.758;6.120;2023-02-28T09:08:59;-0.30;99.90
12911;DHT22;6523;49.758;6.120;2023-02-28T09:11:26;-0.30;99.90
12911;DHT22;6523;49.758;6.120;2023-02-28T09:13:52;-0.20;99.90
12911;DHT22;6523;49.758;6.120;2023-02-28T09:16:17;0.00;99.90
12911;DHT22;6523;49.758;6.120;2023-02-28T09:18:43;0.00;99.90
12911;DHT22;6523;49.758;6.120;2023-02-28T09:21:11;0.00;99.90
12911;DHT22;6523;49.758;6.120;2023-02-28T09:23:40;0.10;99.90
12911;DHT22;6523;49.758;6.120;2023-02-28T09:26:06;0.40;99.90
12911;DHT22;6523;49.758;6.120;2023-02-28T09:28:32;0.50;99.90
12911;DHT22;6523;49.758;6.120;2023-02-28T09:30:57;0.70;99.90
12911;DHT22;6523;49.758;6.120;2023-02-28T09:33:25;0.90;99.90
12911;DHT22;6523;49.758;6.120;2023-02-28T09:35:57;1.10;99.90
12911;DHT22;6523;49.758;6.120;2023-02-28T09:38:23;1.30;99.90
12911;DHT22;6523;49.758;6.120;2023-02-28T09:41:12;1.50;99.90
12911;DHT22;6523;49.758;6.120;2023-02-28T09:43:41;1.60;99.90
12911;DHT22;6523;49.758;6.120;2023-02-28T09:48:45;2.10;99.90
12911;DHT22;6523;49.758;6.120;2023-02-28T09:51:28;2.10;99.90
12911;DHT22;6523;49.758;6.120;2023-02-28T09:53:55;2.20;99.90
12911;DHT22;6523;49.758;6.120;2023-02-28T09:56:25;2.50;99.90
12911;DHT22;6523;49.758;6.120;2023-02-28T10:04:54;2.80;99.90
12911;DHT22;6523;49.758;6.120;2023-02-28T10:07:41;2.50;99.90
12911;DHT22;6523;49.758;6.120;2023-02-28T10:12:53;3.30;99.90
12911;DHT22;6523;49.758;6.120;2023-02-28T10:15:21;3.30;99.90
12911;DHT22;6523;49.758;6.120;2023-02-28T10:17:49;3.60;99.90
12911;DHT22;6523;49.758;6.120;2023-02-28T10:20:21;3.50;99.90
12911;DHT22;6523;49.758;6.120;2023-02-28T10:22:53;3.50;99.90
12911;DHT22;6523;49.758;6.120;2023-02-28T10:25:25;3.40;99.90
12911;DHT22;6523;49.758;6.120;2023-02-28T10:27:54;3.60;99.90
12911;DHT22;6523;49.758;6.120;2023-02-28T10:30:24;3.90;99.90
12911;DHT22;6523;49.758;6.120;2023-02-28T10:32:51;4.00;99.90
12911;DHT22;6523;49.758;6.120;2023-02-28T10:35:22;4.20;99.90
12911;DHT22;6523;49.758;6.120;2023-02-28T10:37:56;4.20;98.30
12911;DHT22;6523;49.758;6.120;2023-02-28T10:43:03;4.50;96.50
12911;DHT22;6523;49.758;6.120;2023-02-28T10:45:31;4.90;97.30
12911;DHT22;6523;49.758;6.120;2023-02-28T10:48:06;5.30;94.20
12911;DHT22;6523;49.758;6.120;2023-02-28T10:58:33;4.80;70.40
12911;DHT22;6523;49.758;6.120;2023-02-28T11:01:13;4.40;69.10
12911;DHT22;6523;49.758;6.120;2023-02-28T11:03:39;4.30;69.40
12911;DHT22;6523;49.758;6.120;2023-02-28T11:06:16;4.90;72.50
12911;DHT22;6523;49.758;6.120;2023-02-28T11:08:52;4.40;64.70
12911;DHT22;6523;49.758;6.120;2023-02-28T11:11:18;3.60;58.10
12911;DHT22;6523;49.758;6.120;2023-02-28T11:13:46;3.50;61.70
12911;DHT22;6523;49.758;6.120;2023-02-28T11:16:14;3.30;63.30
12911;DHT22;6523;49.758;6.120;2023-02-28T11:18:54;3.30;63.40
12911;DHT22;6523;49.758;6.120;2023-02-28T11:21:32;3.70;63.60
12911;DHT22;6523;49.758;6.120;2023-02-28T11:24:12;3.20;59.60
12911;DHT22;6523;49.758;6.120;2023-02-28T11:26:46;3.30;64.00
12911;DHT22;6523;49.758;6.120;2023-02-28T11:29:27;3.40;64.40
12911;DHT22;6523;49.758;6.120;2023-02-28T11:34:39;3.90;63.70
12911;DHT22;6523;49.758;6.120;2023-02-28T11:37:11;3.90;64.70
12911;DHT22;6523;49.758;6.120;2023-02-28T11:39:37;3.90;59.00
12911;DHT22;6523;49.758;6.120;2023-02-28T11:44:45;4.60;61.20
12911;DHT22;6523;49.758;6.120;2023-02-28T11:47:32;4.60;59.90
12911;DHT22;6523;49.758;6.120;2023-02-28T11:55:26;4.90;59.10
12911;DHT22;6523;49.758;6.120;2023-02-28T11:58:02;4.50;55.50
12911;DHT22;6523;49.758;6.120;2023-02-28T12:00:46;4.40;56.30
12911;DHT22;6523;49.758;6.120;2023-02-28T12:03:28;5.40;55.00
12911;DHT22;6523;49.758;6.120;2023-02-28T12:11:25;5.10;53.30
12911;DHT22;6523;49.758;6.120;2023-02-28T12:14:07;5.00;53.20
12911;DHT22;6523;49.758;6.120;2023-02-28T12:16:49;4.20;48.30
12911;DHT22;6523;49.758;6.120;2023-02-28T12:27:29;3.70;50.80
12911;DHT22;6523;49.758;6.120;2023-02-28T12:30:03;4.30;53.70
12911;DHT22;6523;49.758;6.120;2023-02-28T12:32:41;4.00;49.10
12911;DHT22;6523;49.758;6.120;2023-02-28T12:35:59;3.80;50.10
12911;DHT22;6523;49.758;6.120;2023-02-28T12:41:16;3.70;49.30
12911;DHT22;6523;49.758;6.120;2023-02-28T12:44:08;3.70;50.00
12911;DHT22;6523;49.758;6.120;2023-02-28T12:46:44;4.20;50.00
12911;DHT22;6523;49.758;6.120;2023-02-28T12:49:17;4.50;51.30
12911;DHT22;6523;49.758;6.120;2023-02-28T12:51:46;4.50;47.20
12911;DHT22;6523;49.758;6.120;2023-02-28T12:54:24;4.20;49.10
12911;DHT22;6523;49.758;6.120;2023-02-28T13:00:00;4.10;46.10
12911;DHT22;6523;49.758;6.120;2023-02-28T13:11:06;3.60;45.00
12911;DHT22;6523;49.758;6.120;2023-02-28T13:13:31;3.70;50.40
12911;DHT22;6523;49.758;6.120;2023-02-28T13:16:05;3.90;46.80
12911;DHT22;6523;49.758;6.120;2023-02-28T13:18:43;4.10;49.30
12911;DHT22;6523;49.758;6.120;2023-02-28T13:21:26;4.30;45.40
12911;DHT22;6523;49.758;6.120;2023-02-28T13:26:22;5.10;43.80
12911;DHT22;6523;49.758;6.120;2023-02-28T13:31:16;5.50;33.50
12911;DHT22;6523;49.758;6.120;2023-02-28T13:44:03;4.40;32.70
12911;DHT22;6523;49.758;6.120;2023-02-28T13:46:29;4.20;37.00
12911;DHT22;6523;49.758;6.120;2023-02-28T13:48:55;4.10;39.80
12911;DHT22;6523;49.758;6.120;2023-02-28T13:51:40;4.70;41.90
12911;DHT22;6523;49.758;6.120;2023-02-28T13:54:26;4.80;40.60
12911;DHT22;6523;49.758;6.120;2023-02-28T13:57:12;5.00;37.60
12911;DHT22;6523;49.758;6.120;2023-02-28T14:02:49;4.40;30.50
12911;DHT22;6523;49.758;6.120;2023-02-28T14:05:21;4.40;38.50
12911;DHT22;6523;49.758;6.120;2023-02-28T14:07:53;4.40;34.60
12911;DHT22;6523;49.758;6.120;2023-02-28T14:10:23;4.30;31.70
12911;DHT22;6523;49.758;6.120;2023-02-28T14:13:01;4.30;28.10
12911;DHT22;6523;49.758;6.120;2023-02-28T14:17:54;4.40;33.00
12911;DHT22;6523;49.758;6.120;2023-02-28T14:20:22;4.30;32.90
12911;DHT22;6523;49.758;6.120;2023-02-28T14:23:00;4.10;35.40
12911;DHT22;6523;49.758;6.120;2023-02-28T14:25:36;4.20;35.40
12911;DHT22;6523;49.758;6.120;2023-02-28T14:33:40;7.30;17.00
12911;DHT22;6523;49.758;6.120;2023-02-28T14:36:35;7.20;7.70
12911;DHT22;6523;49.758;6.120;2023-02-28T14:39:26;6.50;4.10
12911;DHT22;6523;49.758;6.120;2023-02-28T14:41:51;6.60;4.60
12911;DHT22;6523;49.758;6.120;2023-02-28T14:44:26;6.40;4.90
12911;DHT22;6523;49.758;6.120;2023-02-28T14:46:54;5.50;5.40
12911;DHT22;6523;49.758;6.120;2023-02-28T14:49:21;5.00;9.10
12911;DHT22;6523;49.758;6.120;2023-02-28T14:51:51;4.70;15.00
12911;DHT22;6523;49.758;6.120;2023-02-28T14:54:26;5.00;17.70
12911;DHT22;6523;49.758;6.120;2023-02-28T14:56:52;5.80;15.10
12911;DHT22;6523;49.758;6.120;2023-02-28T15:01:51;5.60;13.50
12911;DHT22;6523;49.758;6.120;2023-02-28T15:04:24;5.60;9.10
12911;DHT22;6523;49.758;6.120;2023-02-28T15:07:14;5.60;9.30
12911;DHT22;6523;49.758;6.120;2023-02-28T15:09:40;4.90;12.90
12911;DHT22;6523;49.758;6.120;2023-02-28T15:12:05;4.40;15.80
12911;DHT22;6523;49.758;6.120;2023-02-28T15:14:32;5.10;21.20
12911;DHT22;6523;49.758;6.120;2023-02-28T15:17:06;5.50;16.10
12911;DHT22;6523;49.758;6.120;2023-02-28T15:19:36;6.00;14.20
12911;DHT22;6523;49.758;6.120;2023-02-28T15:22:08;5.90;6.90
12911;DHT22;6523;49.758;6.120;2023-02-28T15:27:07;6.00;7.30
12911;DHT22;6523;49.758;6.120;2023-02-28T15:29:48;6.20;5.20
12911;DHT22;6523;49.758;6.120;2023-02-28T15:32:32;6.40;5.00
12911;DHT22;6523;49.758;6.120;2023-02-28T15:35:16;6.20;6.40
12911;DHT22;6523;49.758;6.120;2023-02-28T15:37:48;6.00;3.50
12911;DHT22;6523;49.758;6.120;2023-02-28T15:40:25;5.70;5.30
12911;DHT22;6523;49.758;6.120;2023-02-28T15:43:18;5.70;4.40
12911;DHT22;6523;49.758;6.120;2023-02-28T15:45:50;5.90;11.50
12911;DHT22;6523;49.758;6.120;2023-02-28T15:48:43;6.10;6.30
12911;DHT22;6523;49.758;6.120;2023-02-28T15:51:33;6.20;6.40
12911;DHT22;6523;49.758;6.120;2023-02-28T15:54:05;5.80;1.00
12911;DHT22;6523;49.758;6.120;2023-02-28T15:56:36;5.60;4.30
12911;DHT22;6523;49.758;6.120;2023-02-28T15:59:06;5.50;6.90
12911;DHT22;6523;49.758;6.120;2023-02-28T16:01:37;5.60;4.70
12911;DHT22;6523;49.758;6.120;2023-02-28T16:04:23;5.70;8.10
12911;DHT22;6523;49.758;6.120;2023-02-28T16:09:23;5.40;11.10
12911;DHT22;6523;49.758;6.120;2023-02-28T16:11:50;5.60;11.00
12911;DHT22;6523;49.758;6.120;2023-02-28T16:14:23;5.40;5.60
12911;DHT22;6523;49.758;6.120;2023-02-28T16:16:51;5.10;12.40
12911;DHT22;6523;49.758;6.120;2023-02-28T16:19:18;5.10;11.10
12911;DHT22;6523;49.758;6.120;2023-02-28T16:21:44;5.30;13.70
12911;DHT22;6523;49.758;6.120;2023-02-28T16:24:10;5.10;8.30
12911;DHT22;6523;49.758;6.120;2023-02-28T16:26:44;5.00;7.20
12911;DHT22;6523;49.758;6.120;2023-02-28T16:29:24;5.00;9.60
12911;DHT22;6523;49.758;6.120;2023-02-28T16:31:50;4.90;8.00
12911;DHT22;6523;49.758;6.120;2023-02-28T16:34:16;5.00;11.70
12911;DHT22;6523;49.758;6.120;2023-02-28T16:36:41;4.90;12.70
12911;DHT22;6523;49.758;6.120;2023-02-28T16:39:07;4.90;13.90
12911;DHT22;6523;49.758;6.120;2023-02-28T16:41:33;4.80;10.80
12911;DHT22;6523;49.758;6.120;2023-02-28T16:43:59;4.30;13.60
12911;DHT22;6523;49.758;6.120;2023-02-28T16:46:33;4.20;16.90
12911;DHT22;6523;49.758;6.120;2023-02-28T16:48:59;3.90;17.10
12911;DHT22;6523;49.758;6.120;2023-02-28T16:51:25;3.80;26.20
12911;DHT22;6523;49.758;6.120;2023-02-28T16:53:50;3.40;23.50
12911;DHT22;6523;49.758;6.120;2023-02-28T16:56:19;3.30;25.30
12911;DHT22;6523;49.758;6.120;2023-02-28T16:58:45;3.20;26.10
12911;DHT22;6523;49.758;6.120;2023-02-28T17:01:11;3.10;28.60
12911;DHT22;6523;49.758;6.120;2023-02-28T17:03:37;2.80;29.70
12911;DHT22;6523;49.758;6.120;2023-02-28T17:06:04;2.90;30.70
12911;DHT22;6523;49.758;6.120;2023-02-28T17:08:30;2.80;33.50
12911;DHT22;6523;49.758;6.120;2023-02-28T17:10:57;2.60;34.90
12911;DHT22;6523;49.758;6.120;2023-02-28T17:13:23;2.30;36.40
12911;DHT22;6523;49.758;6.120;2023-02-28T17:15:49;2.20;36.60
12911;DHT22;6523;49.758;6.120;2023-02-28T17:18:17;2.20;37.50
12911;DHT22;6523;49.758;6.120;2023-02-28T17:20:45;2.20;38.50
12911;DHT22;6523;49.758;6.120;2023-02-28T17:23:11;2.10;40.10
12911;DHT22;6523;49.758;6.120;2023-02-28T17:25:36;2.20;40.70
12911;DHT22;6523;49.758;6.120;2023-02-28T17:28:02;2.20;43.30
12911;DHT22;6523;49.758;6.120;2023-02-28T17:30:27;2.00;42.00
12911;DHT22;6523;49.758;6.120;2023-02-28T17:32:54;1.90;45.70
12911;DHT22;6523;49.758;6.120;2023-02-28T17:35:20;1.90;47.30
12911;DHT22;6523;49.758;6.120;2023-02-28T17:37:46;1.50;49.30
12911;DHT22;6523;49.758;6.120;2023-02-28T17:40:20;1.20;51.00
12911;DHT22;6523;49.758;6.120;2023-02-28T17:42:45;0.90;56.10
12911;DHT22;6523;49.758;6.120;2023-02-28T17:45:12;1.00;60.00
12911;DHT22;6523;49.758;6.120;2023-02-28T17:47:38;1.00;56.80
12911;DHT22;6523;49.758;6.120;2023-02-28T17:50:05;1.10;55.90
12911;DHT22;6523;49.758;6.120;2023-02-28T17:52:31;0.80;55.20
12911;DHT22;6523;49.758;6.120;2023-02-28T17:55:02;0.80;60.70
12911;DHT22;6523;49.758;6.120;2023-02-28T17:57:28;0.70;60.70
12911;DHT22;6523;49.758;6.120;2023-02-28T17:59:57;0.10;65.40
12911;DHT22;6523;49.758;6.120;2023-02-28T18:02:25;0.20;70.10
12911;DHT22;6523;49.758;6.120;2023-02-28T18:04:52;-0.10;72.90
12911;DHT22;6523;49.758;6.120;2023-02-28T18:07:22;-0.10;71.90
12911;DHT22;6523;49.758;6.120;2023-02-28T18:09:48;0.10;73.60
12911;DHT22;6523;49.758;6.120;2023-02-28T18:12:14;0.20;68.30
12911;DHT22;6523;49.758;6.120;2023-02-28T18:14:40;0.20;65.20
12911;DHT22;6523;49.758;6.120;2023-02-28T18:17:05;0.20;67.40